Terminal Aerodrome Forecast
Issued by NWS Twin Cities, MN

Home | Current Version | Previous Version | Text Only | Print | Product List | Glossary On
Versions: 1 2 3 4 5 6 7 8 9 10 11 12
993
FTUS43 KMPX 270520
TAFEAU
TAF
KEAU 270520Z 2706/2806 00000KT P6SM FEW050 BKN150
     FM271400 10007KT P6SM BKN035 OVC070
     FM272000 14005KT P6SM SCT040 BKN100=

USA.gov is the U.S. government's official web portal to all federal, state and local government web resources and services.